createdAt,value
2022-12-12T00:01:35.570Z,2.90
2022-12-12T00:04:03.011Z,2.80
2022-12-12T00:06:30.630Z,2.80
2022-12-12T00:08:57.731Z,2.80
2022-12-12T00:11:25.976Z,2.70
2022-12-12T00:13:54.434Z,2.70
2022-12-12T00:16:22.299Z,2.70
2022-12-12T00:18:49.215Z,2.70
2022-12-12T00:21:20.684Z,2.60
2022-12-12T00:26:35.719Z,2.60
2022-12-12T00:29:04.033Z,2.60
2022-12-12T00:31:32.058Z,2.60
2022-12-12T00:33:59.016Z,2.50
2022-12-12T00:36:29.470Z,2.60
2022-12-12T00:38:58.079Z,2.50
2022-12-12T00:41:25.173Z,2.60
2022-12-12T00:43:52.297Z,2.50
2022-12-12T00:46:23.574Z,2.60
2022-12-12T00:48:54.562Z,2.60
2022-12-12T00:51:23.724Z,2.60
2022-12-12T00:53:51.513Z,2.60
2022-12-12T00:56:22.864Z,2.60
2022-12-12T00:58:50.873Z,2.60
2022-12-12T01:01:26.792Z,2.60
2022-12-12T01:03:54.257Z,2.60
2022-12-12T01:06:21.903Z,2.60
2022-12-12T01:08:48.701Z,2.60
2022-12-12T01:11:17.497Z,2.60
2022-12-12T01:13:45.967Z,2.60
2022-12-12T01:16:13.303Z,2.50
2022-12-12T01:18:41.332Z,2.50
2022-12-12T01:21:15.284Z,2.40
2022-12-12T01:23:42.119Z,2.90
2022-12-12T01:26:17.124Z,2.50
2022-12-12T01:28:45.247Z,2.40
2022-12-12T01:31:13.094Z,2.40
2022-12-12T01:33:40.931Z,2.40
2022-12-12T01:36:07.791Z,2.40
2022-12-12T01:38:34.522Z,2.30
2022-12-12T01:41:01.272Z,2.40
2022-12-12T01:43:29.630Z,2.40
2022-12-12T01:45:59.371Z,2.30
2022-12-12T01:48:38.097Z,2.30
2022-12-12T01:51:15.385Z,2.40
2022-12-12T01:53:44.510Z,2.40
2022-12-12T01:56:16.686Z,2.40
2022-12-12T01:58:49.668Z,2.40
2022-12-12T02:01:18.446Z,2.40
2022-12-12T02:03:48.822Z,2.50
2022-12-12T02:06:25.245Z,2.50
2022-12-12T02:08:56.608Z,2.50
2022-12-12T02:11:23.550Z,2.50
2022-12-12T02:13:51.029Z,2.60
2022-12-12T02:17:08.232Z,2.60
2022-12-12T02:20:18.556Z,2.60
2022-12-12T02:23:18.705Z,2.60
2022-12-12T02:26:12.271Z,2.70
2022-12-12T02:29:19.255Z,2.70
2022-12-12T02:32:05.254Z,2.70
2022-12-12T02:34:58.364Z,2.70
2022-12-12T02:37:50.732Z,2.70
2022-12-12T02:40:35.228Z,2.70
2022-12-12T02:43:26.199Z,2.70
2022-12-12T02:46:03.391Z,2.70
2022-12-12T02:48:52.944Z,2.70
2022-12-12T02:51:21.398Z,2.80
2022-12-12T02:53:48.264Z,2.80
2022-12-12T02:56:55.072Z,2.90
2022-12-12T02:59:37.676Z,2.90
2022-12-12T03:02:38.195Z,2.90
2022-12-12T03:05:49.639Z,3.00
2022-12-12T03:08:48.889Z,3.00
2022-12-12T03:11:42.079Z,3.00
2022-12-12T03:14:23.554Z,3.10
2022-12-12T03:16:59.904Z,3.10
2022-12-12T03:19:42.201Z,3.10
2022-12-12T03:22:42.916Z,3.10
2022-12-12T03:25:35.389Z,3.10
2022-12-12T03:28:45.151Z,3.10
2022-12-12T03:31:17.105Z,3.10
2022-12-12T03:34:27.778Z,3.20
2022-12-12T03:37:09.643Z,3.20
2022-12-12T03:39:47.328Z,3.20
2022-12-12T03:42:47.186Z,3.20
2022-12-12T03:45:29.310Z,3.20
2022-12-12T03:48:29.385Z,3.20
2022-12-12T03:51:05.352Z,3.20
2022-12-12T03:54:08.408Z,3.20
2022-12-12T03:56:46.067Z,3.30
2022-12-12T03:59:36.853Z,3.30
2022-12-12T04:02:34.043Z,3.30
2022-12-12T04:05:16.384Z,3.30
2022-12-12T04:07:54.784Z,3.30
2022-12-12T04:10:43.766Z,3.30
2022-12-12T04:13:21.850Z,3.30
2022-12-12T04:15:55.836Z,3.30
2022-12-12T04:18:26.572Z,3.30
2022-12-12T04:21:47.980Z,3.40
2022-12-12T04:24:41.281Z,3.50
2022-12-12T04:27:22.144Z,3.50
2022-12-12T04:30:02.169Z,3.50
2022-12-12T04:32:45.001Z,3.50
2022-12-12T04:35:43.307Z,3.60
2022-12-12T04:38:19.196Z,3.60
2022-12-12T04:40:51.970Z,3.60
2022-12-12T04:43:27.424Z,3.60
2022-12-12T04:46:01.471Z,3.60
2022-12-12T04:48:38.609Z,3.70
2022-12-12T04:51:10.376Z,3.70
2022-12-12T04:53:47.738Z,3.70
2022-12-12T04:56:20.024Z,4.20
2022-12-12T04:58:46.926Z,3.80
2022-12-12T05:01:34.312Z,3.70
2022-12-12T05:04:09.308Z,3.70
2022-12-12T05:06:49.976Z,3.70
2022-12-12T05:09:18.279Z,3.70
2022-12-12T05:11:45.082Z,3.70
2022-12-12T05:14:15.421Z,3.70
2022-12-12T05:16:53.068Z,3.70
2022-12-12T05:19:20.093Z,3.70
2022-12-12T05:21:46.825Z,3.70
2022-12-12T05:24:13.629Z,3.70
2022-12-12T05:26:41.024Z,3.70
2022-12-12T05:29:08.013Z,3.70
2022-12-12T05:31:35.728Z,3.70
2022-12-12T05:34:03.940Z,3.70
2022-12-12T05:36:30.911Z,3.70
2022-12-12T05:38:57.633Z,3.70
2022-12-12T05:41:24.513Z,3.70
2022-12-12T05:43:51.235Z,3.70
2022-12-12T05:46:18.036Z,3.70
2022-12-12T05:48:50.284Z,3.70
2022-12-12T05:51:18.448Z,3.80
2022-12-12T05:53:45.894Z,3.80
2022-12-12T05:56:13.077Z,3.80
2022-12-12T05:58:42.536Z,3.80
2022-12-12T06:01:09.913Z,3.90
2022-12-12T06:03:36.780Z,3.90
2022-12-12T06:06:03.883Z,3.80
2022-12-12T06:08:30.739Z,3.90
2022-12-12T06:10:58.700Z,3.90
2022-12-12T06:13:25.405Z,3.90
2022-12-12T06:15:52.166Z,3.90
2022-12-12T06:18:18.985Z,3.90
2022-12-12T06:20:45.681Z,3.90
2022-12-12T06:23:12.463Z,3.90
2022-12-12T06:25:39.213Z,3.90
2022-12-12T06:28:06.238Z,3.90
2022-12-12T06:30:32.998Z,3.90
2022-12-12T06:32:59.736Z,3.80
2022-12-12T06:35:26.503Z,3.90
2022-12-12T06:37:53.218Z,3.90
2022-12-12T06:40:20.031Z,3.90
2022-12-12T06:42:48.687Z,3.80
2022-12-12T06:45:17.054Z,3.80
2022-12-12T06:47:43.882Z,3.90
2022-12-12T06:50:11.334Z,3.90
2022-12-12T06:52:38.097Z,3.90
2022-12-12T06:55:05.432Z,3.80
2022-12-12T06:57:32.164Z,3.90
2022-12-12T06:59:58.877Z,3.80
2022-12-12T07:02:29.605Z,3.80
2022-12-12T07:04:58.268Z,3.80
2022-12-12T07:07:25.002Z,3.80
2022-12-12T07:09:51.887Z,3.80
2022-12-12T07:12:18.612Z,3.70
2022-12-12T07:14:45.484Z,3.80
2022-12-12T07:17:12.740Z,3.80
2022-12-12T07:19:39.479Z,3.80
2022-12-12T07:22:10.187Z,3.80
2022-12-12T07:24:38.088Z,3.80
2022-12-12T07:27:06.630Z,3.80
2022-12-12T07:29:33.843Z,3.80
2022-12-12T07:32:00.597Z,3.80
2022-12-12T07:34:29.844Z,3.70
2022-12-12T07:37:02.500Z,3.70
2022-12-12T07:39:32.608Z,3.70
2022-12-12T07:41:59.958Z,3.70
2022-12-12T07:44:26.703Z,3.70
2022-12-12T07:46:53.510Z,3.70
2022-12-12T07:49:20.260Z,3.70
2022-12-12T07:51:49.156Z,3.80
2022-12-12T07:54:16.580Z,3.80
2022-12-12T07:56:43.298Z,3.80
2022-12-12T07:59:10.004Z,3.80
2022-12-12T08:01:36.901Z,3.80
2022-12-12T08:04:04.552Z,3.90
2022-12-12T08:06:32.061Z,3.90
2022-12-12T08:08:58.821Z,3.80
2022-12-12T08:11:26.148Z,3.80
2022-12-12T08:13:54.329Z,3.80
2022-12-12T08:16:27.796Z,3.80
2022-12-12T08:18:56.848Z,3.80
2022-12-12T08:21:26.518Z,3.80
2022-12-12T08:23:58.931Z,3.80
2022-12-12T08:28:54.825Z,3.80
2022-12-12T08:31:22.770Z,3.80
2022-12-12T08:33:51.137Z,3.80
2022-12-12T08:36:21.888Z,3.80
2022-12-12T08:38:49.633Z,3.80
2022-12-12T08:41:17.891Z,3.80
2022-12-12T08:43:45.366Z,3.80
2022-12-12T08:46:17.944Z,3.90
2022-12-12T08:48:49.149Z,3.80
2022-12-12T08:51:17.955Z,3.90
2022-12-12T08:53:47.453Z,3.80
2022-12-12T08:56:15.830Z,3.90
2022-12-12T08:58:42.855Z,3.90
2022-12-12T09:01:11.862Z,3.90
2022-12-12T09:03:38.573Z,3.80
2022-12-12T09:06:07.334Z,3.90
2022-12-12T09:08:34.527Z,3.90
2022-12-12T09:11:01.268Z,3.90
2022-12-12T09:13:28.115Z,3.90
2022-12-12T09:15:54.960Z,3.90
2022-12-12T09:18:22.847Z,3.90
2022-12-12T09:20:52.161Z,3.90
2022-12-12T09:23:20.265Z,3.90
2022-12-12T09:25:47.097Z,3.90
2022-12-12T09:28:18.237Z,4.00
2022-12-12T09:30:46.077Z,4.00
2022-12-12T09:33:14.433Z,4.00
2022-12-12T09:35:42.014Z,3.90
2022-12-12T09:38:13.950Z,3.90
2022-12-12T09:40:57.839Z,3.90
2022-12-12T09:43:31.260Z,3.90
2022-12-12T09:46:01.025Z,3.90
2022-12-12T09:48:46.453Z,3.90
2022-12-12T09:51:14.257Z,2.90
2022-12-12T09:53:44.730Z,3.90
2022-12-12T09:56:39.945Z,3.80
2022-12-12T09:59:41.987Z,3.80
2022-12-12T10:02:54.975Z,3.70
2022-12-12T10:05:45.879Z,3.70
2022-12-12T10:08:24.280Z,3.60
2022-12-12T10:11:04.639Z,3.60
2022-12-12T10:13:35.308Z,3.50
2022-12-12T10:16:11.929Z,3.50
2022-12-12T10:18:45.614Z,3.50
2022-12-12T10:21:26.038Z,3.50
2022-12-12T10:24:16.721Z,3.40
2022-12-12T10:26:43.686Z,3.40
2022-12-12T10:29:23.316Z,3.40
2022-12-12T10:32:36.473Z,3.30
2022-12-12T10:35:26.629Z,3.30
2022-12-12T10:38:48.872Z,3.30
2022-12-12T10:41:46.990Z,3.30
2022-12-12T10:44:47.361Z,3.30
2022-12-12T10:47:14.675Z,3.30
2022-12-12T10:49:42.112Z,3.20
2022-12-12T10:52:19.298Z,3.30
2022-12-12T10:54:55.592Z,3.30
2022-12-12T10:57:35.142Z,3.20
2022-12-12T11:00:29.419Z,3.20
2022-12-12T11:03:10.395Z,3.20
2022-12-12T11:05:40.840Z,3.00
2022-12-12T11:08:28.982Z,3.20
2022-12-12T11:11:19.004Z,3.20
2022-12-12T11:14:04.335Z,3.20
2022-12-12T11:16:43.629Z,2.90
2022-12-12T11:19:37.228Z,3.30
2022-12-12T11:22:04.972Z,3.30
2022-12-12T11:24:34.980Z,3.30
2022-12-12T11:27:06.382Z,3.30
2022-12-12T11:29:53.239Z,3.30
2022-12-12T11:32:33.636Z,3.30
2022-12-12T11:35:04.661Z,3.30
2022-12-12T11:37:45.526Z,3.30
2022-12-12T11:40:27.207Z,3.30
2022-12-12T11:43:16.703Z,3.30
2022-12-12T11:45:43.606Z,3.30
2022-12-12T11:48:59.587Z,3.30
2022-12-12T11:51:44.898Z,3.30
2022-12-12T11:54:31.472Z,3.30
2022-12-12T11:57:40.700Z,3.40
2022-12-12T12:00:21.457Z,3.40
2022-12-12T12:03:08.634Z,3.40
2022-12-12T12:05:59.112Z,3.40
2022-12-12T12:08:35.452Z,3.40
2022-12-12T12:11:27.520Z,3.40
2022-12-12T12:14:23.842Z,3.40
2022-12-12T12:17:11.057Z,3.40
2022-12-12T12:20:00.253Z,3.30
2022-12-12T12:23:47.424Z,3.30
2022-12-12T12:26:32.109Z,3.20
2022-12-12T12:29:31.057Z,3.20
2022-12-12T12:32:40.101Z,3.20
2022-12-12T12:35:48.336Z,3.10
2022-12-12T12:39:00.329Z,3.10
2022-12-12T12:42:16.220Z,3.10
2022-12-12T12:45:20.536Z,3.10
2022-12-12T12:47:57.422Z,3.10
2022-12-12T12:50:40.292Z,3.20
2022-12-12T12:53:29.812Z,3.10
2022-12-12T12:56:08.139Z,3.00
2022-12-12T12:58:47.251Z,3.00
2022-12-12T13:02:02.817Z,3.00
2022-12-12T13:04:46.598Z,3.00
2022-12-12T13:07:40.889Z,3.00
2022-12-12T13:10:22.260Z,2.90
2022-12-12T13:13:23.773Z,2.90
2022-12-12T13:16:01.211Z,2.90
2022-12-12T13:18:44.475Z,2.90
2022-12-12T13:21:28.212Z,2.90
2022-12-12T13:24:24.182Z,2.80
2022-12-12T13:27:34.598Z,2.80
2022-12-12T13:30:26.195Z,2.80
2022-12-12T13:33:12.572Z,2.80
2022-12-12T13:35:51.635Z,2.80
2022-12-12T13:38:30.531Z,2.80
2022-12-12T13:41:01.327Z,2.30
2022-12-12T13:43:45.211Z,2.80
2022-12-12T13:46:24.608Z,2.80
2022-12-12T13:49:02.172Z,2.80
2022-12-12T13:51:30.165Z,2.80
2022-12-12T13:54:14.114Z,2.80
2022-12-12T13:56:52.666Z,2.80
2022-12-12T13:59:22.313Z,2.80
2022-12-12T14:02:32.345Z,2.80
2022-12-12T14:05:22.745Z,2.80
2022-12-12T14:07:53.749Z,2.80
2022-12-12T14:10:49.490Z,2.80
2022-12-12T14:13:22.396Z,2.80
2022-12-12T14:16:05.941Z,2.80
2022-12-12T14:18:55.858Z,2.80
2022-12-12T14:21:45.809Z,2.80
2022-12-12T14:24:47.950Z,2.80
2022-12-12T14:27:15.306Z,2.80
2022-12-12T14:29:45.178Z,2.70
2022-12-12T14:32:11.896Z,2.70
2022-12-12T14:35:11.536Z,2.70
2022-12-12T14:37:51.537Z,2.80
2022-12-12T14:40:36.238Z,2.70
2022-12-12T14:43:19.135Z,2.80
2022-12-12T14:45:51.316Z,2.80
2022-12-12T14:48:30.937Z,2.70
2022-12-12T14:51:31.958Z,2.70
2022-12-12T14:54:01.581Z,2.70
2022-12-12T14:56:39.289Z,2.70
2022-12-12T14:59:19.117Z,2.70
2022-12-12T15:01:53.432Z,2.60
2022-12-12T15:04:34.251Z,2.60
2022-12-12T15:07:07.383Z,2.70
2022-12-12T15:09:39.373Z,2.70
2022-12-12T15:12:18.876Z,2.70
2022-12-12T15:14:48.563Z,2.70
2022-12-12T15:17:29.369Z,2.60
2022-12-12T15:20:05.968Z,2.60
2022-12-12T15:22:54.889Z,2.60
2022-12-12T15:25:26.161Z,2.60
2022-12-12T15:27:56.464Z,2.60
2022-12-12T15:30:39.897Z,2.60
2022-12-12T15:33:37.342Z,2.50
2022-12-12T15:36:05.295Z,2.50
2022-12-12T15:38:34.082Z,2.50
2022-12-12T15:41:12.736Z,2.50
2022-12-12T15:43:41.558Z,2.50
2022-12-12T15:46:14.702Z,2.50
2022-12-12T15:48:43.489Z,2.50
2022-12-12T15:51:12.477Z,2.40
2022-12-12T15:53:46.362Z,2.40
2022-12-12T15:56:23.512Z,2.40
2022-12-12T15:58:57.113Z,2.40
2022-12-12T16:01:29.873Z,2.40
2022-12-12T16:04:09.276Z,2.40
2022-12-12T16:06:45.957Z,2.40
2022-12-12T16:09:24.451Z,2.40
2022-12-12T16:11:56.544Z,2.40
2022-12-12T16:14:40.238Z,2.40
2022-12-12T16:17:25.560Z,2.40
2022-12-12T16:20:02.962Z,2.50
2022-12-12T16:22:49.351Z,5.80
2022-12-12T16:25:26.182Z,2.40
2022-12-12T16:28:07.199Z,2.60
2022-12-12T16:30:36.498Z,2.50
2022-12-12T16:33:24.527Z,2.50
2022-12-12T16:35:51.751Z,2.50
2022-12-12T16:38:19.376Z,2.50
2022-12-12T16:40:49.567Z,2.50
2022-12-12T16:43:21.902Z,2.50
2022-12-12T16:45:54.789Z,2.50
2022-12-12T16:48:32.125Z,2.50
2022-12-12T16:51:04.708Z,2.50
2022-12-12T16:53:33.763Z,2.50
2022-12-12T16:56:00.504Z,2.50
2022-12-12T16:58:27.360Z,2.50
2022-12-12T17:00:55.323Z,2.50
2022-12-12T17:03:23.556Z,2.50
2022-12-12T17:05:52.177Z,2.60
2022-12-12T17:08:19.793Z,2.50
2022-12-12T17:10:50.202Z,2.60
2022-12-12T17:13:25.776Z,2.60
2022-12-12T17:15:55.120Z,2.60
2022-12-12T17:18:23.350Z,2.60
2022-12-12T17:20:50.604Z,2.60
2022-12-12T17:23:30.518Z,2.60
2022-12-12T17:26:03.493Z,2.60
2022-12-12T17:28:33.760Z,2.60
2022-12-12T17:31:00.983Z,2.60
2022-12-12T17:33:28.202Z,2.50
2022-12-12T17:36:04.099Z,2.40
2022-12-12T17:38:31.384Z,2.50
2022-12-12T17:41:03.368Z,2.50
2022-12-12T17:46:14.045Z,2.50
2022-12-12T17:48:44.444Z,2.60
2022-12-12T17:51:15.699Z,2.60
2022-12-12T17:53:43.087Z,2.60
2022-12-12T17:56:14.863Z,2.60
2022-12-12T17:58:44.814Z,2.60
2022-12-12T18:01:24.113Z,2.60
2022-12-12T18:03:51.861Z,2.60
2022-12-12T18:06:21.601Z,0.90
2022-12-12T18:08:48.895Z,2.60
2022-12-12T18:11:20.492Z,2.60
2022-12-12T18:13:50.361Z,2.60
2022-12-12T18:16:18.318Z,2.60
2022-12-12T18:18:45.212Z,2.60
2022-12-12T18:21:35.961Z,2.60
2022-12-12T18:24:04.366Z,2.50
2022-12-12T18:26:31.722Z,2.60
2022-12-12T18:29:02.552Z,2.50
2022-12-12T18:31:30.248Z,2.50
2022-12-12T18:33:57.430Z,2.50
2022-12-12T18:36:28.090Z,2.50
2022-12-12T18:39:01.659Z,2.50
2022-12-12T18:41:31.561Z,2.50
2022-12-12T18:43:58.936Z,2.50
2022-12-12T18:46:29.220Z,2.40
2022-12-12T18:48:56.062Z,2.40
2022-12-12T18:51:26.164Z,2.40
2022-12-12T18:53:56.202Z,2.40
2022-12-12T18:56:27.051Z,2.40
2022-12-12T18:58:56.305Z,2.30
2022-12-12T19:01:27.505Z,2.30
2022-12-12T19:03:58.012Z,2.30
2022-12-12T19:06:33.587Z,2.30
2022-12-12T19:09:06.653Z,2.20
2022-12-12T19:11:35.733Z,2.10
2022-12-12T19:14:03.096Z,2.20
2022-12-12T19:19:00.631Z,2.20
2022-12-12T19:21:27.840Z,2.10
2022-12-12T19:23:55.725Z,2.10
2022-12-12T19:26:27.833Z,2.10
2022-12-12T19:29:09.799Z,2.10
2022-12-12T19:31:36.650Z,2.10
2022-12-12T19:34:05.924Z,2.10
2022-12-12T19:36:33.758Z,2.10
2022-12-12T19:39:01.226Z,2.00
2022-12-12T19:41:29.029Z,2.00
2022-12-12T19:46:29.808Z,2.00
2022-12-12T19:49:03.144Z,1.90
2022-12-12T19:51:32.725Z,1.90
2022-12-12T19:54:00.769Z,1.80
2022-12-12T19:56:32.674Z,1.90
2022-12-12T19:59:01.305Z,1.90
2022-12-12T20:01:31.921Z,1.80
2022-12-12T20:04:06.133Z,1.70
2022-12-12T20:06:42.090Z,1.80
2022-12-12T20:09:10.799Z,1.80
2022-12-12T20:11:38.802Z,1.80
2022-12-12T20:14:05.766Z,1.80
2022-12-12T20:16:32.964Z,1.80
2022-12-12T20:24:18.826Z,2.00
2022-12-12T20:26:46.201Z,2.00
2022-12-12T20:29:14.470Z,2.10
2022-12-12T20:31:45.410Z,2.10
2022-12-12T20:34:13.850Z,2.10
2022-12-12T20:36:42.054Z,2.20
2022-12-12T20:39:12.802Z,2.20
2022-12-12T20:41:40.545Z,2.30
2022-12-12T20:44:08.974Z,2.30
2022-12-12T20:46:39.740Z,2.40
2022-12-12T20:49:10.865Z,2.40
2022-12-12T20:54:27.792Z,2.50
2022-12-12T20:56:55.683Z,2.50
2022-12-12T20:59:23.674Z,2.60
2022-12-12T21:01:51.167Z,2.70
2022-12-12T21:04:17.985Z,2.70
2022-12-12T21:06:50.989Z,2.70
2022-12-12T21:09:24.307Z,2.80
2022-12-12T21:11:55.486Z,2.80
2022-12-12T21:14:24.149Z,2.80
2022-12-12T21:16:51.283Z,2.90
2022-12-12T21:19:18.999Z,2.90
2022-12-12T21:21:46.274Z,2.90
2022-12-12T21:24:16.678Z,2.90
2022-12-12T21:26:43.845Z,2.90
2022-12-12T21:29:11.104Z,3.00
2022-12-12T21:31:46.595Z,3.00
2022-12-12T21:34:18.564Z,3.00
2022-12-12T21:36:45.321Z,2.90
2022-12-12T21:39:13.324Z,2.90
2022-12-12T21:41:42.027Z,3.00
2022-12-12T21:44:09.674Z,2.90
2022-12-12T21:46:37.089Z,2.90
2022-12-12T21:49:22.619Z,2.90
2022-12-12T21:51:49.665Z,2.90
2022-12-12T21:54:16.423Z,2.90
2022-12-12T21:56:44.613Z,2.90
2022-12-12T21:59:13.560Z,2.80
2022-12-12T22:01:42.518Z,2.80
2022-12-12T22:04:12.017Z,2.80
2022-12-12T22:06:39.102Z,2.80
2022-12-12T22:09:10.016Z,2.80
2022-12-12T22:11:40.000Z,2.80
2022-12-12T22:14:16.689Z,2.90
2022-12-12T22:16:43.423Z,2.90
2022-12-12T22:19:12.798Z,2.90
2022-12-12T22:21:39.873Z,2.90
2022-12-12T22:24:07.580Z,2.90
2022-12-12T22:26:40.533Z,2.90
2022-12-12T22:29:12.595Z,2.90
2022-12-12T22:31:41.416Z,2.90
2022-12-12T22:34:15.536Z,2.90
2022-12-12T22:36:43.398Z,2.90
2022-12-12T22:39:25.104Z,2.90
2022-12-12T22:41:52.620Z,2.90
2022-12-12T22:44:21.830Z,2.90
2022-12-12T22:46:51.157Z,2.80
2022-12-12T22:49:22.583Z,2.80
2022-12-12T22:51:49.725Z,2.80
2022-12-12T22:54:16.657Z,2.80
2022-12-12T22:56:43.685Z,2.80
2022-12-12T22:59:13.245Z,2.90
2022-12-12T23:01:41.952Z,4.60
2022-12-12T23:04:12.794Z,2.80
2022-12-12T23:06:39.992Z,2.80
2022-12-12T23:09:16.594Z,2.90
2022-12-12T23:11:45.063Z,2.80
2022-12-12T23:14:18.242Z,2.80
2022-12-12T23:16:46.210Z,2.70
2022-12-12T23:19:17.437Z,2.70
2022-12-12T23:21:45.229Z,2.70
2022-12-12T23:24:13.154Z,2.70
2022-12-12T23:26:40.165Z,2.70
2022-12-12T23:29:09.352Z,2.60
2022-12-12T23:31:38.496Z,2.70
2022-12-12T23:34:14.090Z,2.70
2022-12-12T23:36:42.182Z,2.70
2022-12-12T23:39:11.718Z,2.80
2022-12-12T23:41:38.508Z,2.70
2022-12-12T23:44:06.034Z,2.70
2022-12-12T23:46:34.213Z,2.80
2022-12-12T23:49:17.361Z,2.70
2022-12-12T23:51:53.077Z,2.80
2022-12-12T23:54:25.081Z,2.80
2022-12-12T23:56:52.229Z,2.80
2022-12-12T23:59:20.958Z,2.80
